Time;durP1;ratioP1;P1;durP2;ratioP2;P2;SDS_P1;SDS_P2;PMS_P1;PMS_P2;Temp;Humidity;BMP_temperature;BMP_pressure;BME280_temperature;BME280_humidity;BME280_pressure;Samples;Min_cycle;Max_cycle;Signal;HPM_P1;HPM_P2
2021/08/28 00:02:26;;;;;;;14.90;5.63;;;;;;;;;;5024911;28;20215;-72
2021/08/28 00:04:53;;;;;;;11.10;5.47;;;;;;;;;;5026486;28;20228;-72
2021/08/28 00:07:19;;;;;;;12.27;5.70;;;;;;;;;;5025790;28;20212;-72
2021/08/28 00:09:46;;;;;;;16.80;6.50;;;;;;;;;;5027442;28;20227;-72
2021/08/28 00:12:12;;;;;;;12.23;5.97;;;;;;;;;;5027437;28;21319;-72
2021/08/28 00:14:39;;;;;;;14.43;6.33;;;;;;;;;;5027433;28;20237;-72
2021/08/28 00:17:05;;;;;;;15.50;6.43;;;;;;;;;;5025634;28;20272;-72
2021/08/28 00:19:33;;;;;;;14.00;5.97;;;;;;;;;;5026028;28;20216;-72
2021/08/28 00:22:00;;;;;;;14.37;6.20;;;;;;;;;;5027123;28;20620;-72
2021/08/28 00:24:26;;;;;;;11.43;6.37;;;;;;;;;;5028166;28;20848;-72
2021/08/28 00:26:54;;;;;;;13.13;6.23;;;;;;;;;;5030540;28;20241;-73
2021/08/28 00:29:20;;;;;;;13.77;6.23;;;;;;;;;;5030123;28;20203;-72
2021/08/28 00:31:46;;;;;;;11.60;5.60;;;;;;;;;;5030933;28;20294;-72
2021/08/28 00:34:13;;;;;;;11.77;5.47;;;;;;;;;;5028809;28;20212;-72
2021/08/28 00:36:40;;;;;;;11.90;5.30;;;;;;;;;;5029764;28;20737;-72
2021/08/28 00:39:07;;;;;;;12.33;5.50;;;;;;;;;;5030570;28;21071;-72
2021/08/28 00:41:33;;;;;;;13.03;5.30;;;;;;;;;;5028715;28;20235;-72
2021/08/28 00:44:00;;;;;;;10.47;4.70;;;;;;;;;;5030193;28;20219;-72
2021/08/28 00:46:26;;;;;;;10.30;4.60;;;;;;;;;;5031061;28;20654;-72
2021/08/28 00:48:53;;;;;;;10.67;5.13;;;;;;;;;;5030474;28;20262;-72
2021/08/28 00:51:19;;;;;;;8.87;5.20;;;;;;;;;;5031057;28;20695;-72
2021/08/28 00:53:48;;;;;;;14.07;5.37;;;;;;;;;;5029641;28;20228;-72
2021/08/28 00:56:14;;;;;;;8.77;4.97;;;;;;;;;;5031820;28;20218;-72
2021/08/28 00:58:41;;;;;;;9.57;5.37;;;;;;;;;;5032328;28;20219;-72
2021/08/28 01:01:12;;;;;;;11.57;5.30;;;;;;;;;;5029457;28;20235;-72
2021/08/28 01:03:42;;;;;;;15.13;5.07;;;;;;;;;;5029874;28;20607;-72
2021/08/28 01:06:15;;;;;;;11.33;4.80;;;;;;;;;;5027517;28;20253;-72
2021/08/28 01:08:45;;;;;;;11.60;4.63;;;;;;;;;;5029869;28;20246;-72
2021/08/28 01:11:19;;;;;;;14.40;4.87;;;;;;;;;;5032843;28;20583;-72
2021/08/28 01:13:51;;;;;;;10.03;4.97;;;;;;;;;;5028272;28;20544;-72
2021/08/28 01:16:21;;;;;;;11.67;5.03;;;;;;;;;;5029380;28;20212;-72
2021/08/28 01:18:49;;;;;;;10.07;4.93;;;;;;;;;;5028955;28;20670;-72
2021/08/28 01:21:23;;;;;;;13.10;5.13;;;;;;;;;;5029843;28;20212;-72
2021/08/28 01:23:50;;;;;;;11.10;5.27;;;;;;;;;;5029037;28;20277;-72
2021/08/28 01:26:21;;;;;;;12.13;5.73;;;;;;;;;;5027867;28;20626;-72
2021/08/28 01:28:51;;;;;;;11.97;5.13;;;;;;;;;;5029066;28;20838;-72
2021/08/28 01:31:19;;;;;;;13.37;5.07;;;;;;;;;;5027912;28;20230;-72
2021/08/28 01:33:47;;;;;;;12.83;4.97;;;;;;;;;;5029224;28;20288;-72
2021/08/28 01:36:14;;;;;;;8.43;4.80;;;;;;;;;;5028517;28;20686;-72
2021/08/28 01:38:43;;;;;;;13.17;4.83;;;;;;;;;;5030314;28;20228;-72
2021/08/28 01:41:09;;;;;;;9.33;5.20;;;;;;;;;;5028935;28;20675;-72
2021/08/28 01:43:36;;;;;;;13.70;5.30;;;;;;;;;;5027760;28;20223;-72
2021/08/28 01:46:04;;;;;;;11.73;5.47;;;;;;;;;;5024312;28;20208;-72
2021/08/28 01:48:32;;;;;;;11.63;5.20;;;;;;;;;;5025685;28;20213;-72
2021/08/28 01:50:59;;;;;;;12.57;5.47;;;;;;;;;;5028557;28;20238;-72
2021/08/28 01:53:27;;;;;;;6.63;4.90;;;;;;;;;;5029492;28;20236;-72
2021/08/28 01:55:54;;;;;;;13.43;5.70;;;;;;;;;;5028912;28;20208;-72
2021/08/28 01:58:20;;;;;;;11.70;5.80;;;;;;;;;;5029714;28;20653;-72
2021/08/28 02:00:46;;;;;;;11.17;5.97;;;;;;;;;;5029512;28;20722;-72
2021/08/28 02:03:13;;;;;;;13.97;6.13;;;;;;;;;;5027861;28;20263;-72
2021/08/28 02:05:48;;;;;;;16.17;6.27;;;;;;;;;;5022977;28;20216;-72
2021/08/28 02:08:22;;;;;;;11.30;6.17;;;;;;;;;;5027906;28;20223;-72
2021/08/28 02:10:54;;;;;;;14.60;5.87;;;;;;;;;;5028007;28;20688;-72
2021/08/28 02:13:27;;;;;;;13.03;6.80;;;;;;;;;;5029024;28;20246;-72
2021/08/28 02:15:59;;;;;;;13.33;5.80;;;;;;;;;;5026694;28;20558;-72
2021/08/28 02:18:31;;;;;;;13.70;6.33;;;;;;;;;;5027286;28;20262;-72
2021/08/28 02:21:02;;;;;;;13.60;6.80;;;;;;;;;;5027995;28;20214;-72
2021/08/28 02:23:33;;;;;;;15.27;6.30;;;;;;;;;;5028171;28;20232;-72
2021/08/28 02:26:05;;;;;;;14.70;6.47;;;;;;;;;;5027838;28;20265;-72
2021/08/28 02:28:36;;;;;;;14.40;6.90;;;;;;;;;;5026935;28;20258;-72
2021/08/28 02:31:04;;;;;;;11.57;6.40;;;;;;;;;;5027251;28;20285;-72
2021/08/28 02:33:31;;;;;;;11.70;6.47;;;;;;;;;;5027718;28;20211;-71
2021/08/28 02:36:01;;;;;;;9.47;6.47;;;;;;;;;;5029190;28;20654;-72
2021/08/28 02:38:28;;;;;;;13.03;6.17;;;;;;;;;;5027628;28;20287;-72
2021/08/28 02:40:57;;;;;;;11.03;6.60;;;;;;;;;;5029752;28;20211;-72
2021/08/28 02:43:25;;;;;;;10.10;6.37;;;;;;;;;;5026298;28;20215;-72
2021/08/28 02:45:52;;;;;;;10.13;6.50;;;;;;;;;;5028651;28;20665;-72
2021/08/28 02:48:20;;;;;;;13.07;6.53;;;;;;;;;;5025850;28;20574;-72
2021/08/28 02:50:49;;;;;;;11.90;5.43;;;;;;;;;;5027674;28;20243;-72
2021/08/28 02:53:20;;;;;;;11.53;5.90;;;;;;;;;;5029024;28;20945;-72
2021/08/28 02:55:48;;;;;;;11.03;6.13;;;;;;;;;;5028125;28;20546;-73
2021/08/28 02:58:16;;;;;;;8.77;5.87;;;;;;;;;;5026406;28;20215;-73
2021/08/28 03:00:43;;;;;;;11.37;6.93;;;;;;;;;;5026356;28;20643;-73
2021/08/28 03:03:13;;;;;;;12.67;7.73;;;;;;;;;;5029540;28;20215;-73
2021/08/28 03:05:41;;;;;;;11.33;8.17;;;;;;;;;;5029196;28;21188;-73
2021/08/28 03:08:08;;;;;;;11.07;6.93;;;;;;;;;;5028613;28;20614;-73
2021/08/28 03:10:37;;;;;;;11.20;6.97;;;;;;;;;;5026948;28;20216;-73
2021/08/28 03:13:03;;;;;;;10.60;6.87;;;;;;;;;;5026469;28;20214;-73
2021/08/28 03:15:30;;;;;;;8.83;6.03;;;;;;;;;;5023487;28;20269;-73
2021/08/28 03:17:57;;;;;;;12.00;7.17;;;;;;;;;;5027307;28;20267;-73
2021/08/28 03:20:25;;;;;;;10.87;7.33;;;;;;;;;;5027225;28;20267;-73
2021/08/28 03:22:52;;;;;;;11.50;7.37;;;;;;;;;;5029794;28;20738;-73
2021/08/28 03:25:20;;;;;;;9.90;6.23;;;;;;;;;;5027003;28;20253;-73
2021/08/28 03:27:49;;;;;;;10.00;7.53;;;;;;;;;;5027188;28;20219;-73
2021/08/28 03:30:18;;;;;;;11.60;7.40;;;;;;;;;;5028305;28;20219;-73
2021/08/28 03:32:46;;;;;;;11.27;7.60;;;;;;;;;;5027099;28;20681;-73
2021/08/28 03:35:12;;;;;;;12.53;7.37;;;;;;;;;;5026686;28;20212;-73
2021/08/28 03:37:40;;;;;;;7.40;6.67;;;;;;;;;;5028418;28;20212;-73
2021/08/28 03:40:08;;;;;;;10.13;7.13;;;;;;;;;;5027046;28;20231;-73
2021/08/28 03:42:34;;;;;;;8.83;6.37;;;;;;;;;;5028387;28;20214;-73
2021/08/28 03:45:04;;;;;;;10.00;6.90;;;;;;;;;;5028838;28;20219;-73
2021/08/28 03:47:31;;;;;;;13.57;7.23;;;;;;;;;;5026444;28;20215;-73
2021/08/28 03:49:57;;;;;;;11.30;7.23;;;;;;;;;;5027824;28;20333;-73
2021/08/28 03:52:24;;;;;;;14.50;7.73;;;;;;;;;;5026278;28;20623;-73
2021/08/28 03:54:50;;;;;;;10.60;7.50;;;;;;;;;;5025969;28;20294;-73
2021/08/28 03:57:16;;;;;;;11.07;7.70;;;;;;;;;;5024314;28;20261;-73
2021/08/28 03:59:43;;;;;;;10.67;7.30;;;;;;;;;;5025411;28;20252;-73
2021/08/28 04:02:11;;;;;;;13.70;8.43;;;;;;;;;;5031362;28;20220;-73
2021/08/28 04:04:37;;;;;;;14.27;7.30;;;;;;;;;;5032194;28;20287;-73
2021/08/28 04:07:04;;;;;;;13.03;7.47;;;;;;;;;;5029008;28;20219;-73
2021/08/28 04:09:30;;;;;;;14.30;7.23;;;;;;;;;;5030758;28;20234;-73
2021/08/28 04:11:56;;;;;;;15.23;7.67;;;;;;;;;;5029648;28;20231;-73
2021/08/28 04:14:23;;;;;;;14.63;7.10;;;;;;;;;;5029023;28;20288;-73
2021/08/28 04:16:49;;;;;;;12.70;6.73;;;;;;;;;;5032087;28;20247;-73
2021/08/28 04:19:17;;;;;;;14.27;8.43;;;;;;;;;;5030532;28;20257;-73
2021/08/28 04:21:43;;;;;;;13.07;7.10;;;;;;;;;;5031115;28;20211;-73
2021/08/28 04:24:09;;;;;;;13.07;7.37;;;;;;;;;;5028841;28;20231;-73
2021/08/28 04:26:36;;;;;;;13.43;6.87;;;;;;;;;;5029694;28;20607;-73
2021/08/28 04:29:02;;;;;;;9.63;6.27;;;;;;;;;;5029270;28;20232;-73
2021/08/28 04:31:29;;;;;;;11.20;7.23;;;;;;;;;;5029406;28;20231;-73
2021/08/28 04:33:55;;;;;;;11.97;7.50;;;;;;;;;;5028977;28;20214;-73
2021/08/28 04:36:23;;;;;;;15.63;7.37;;;;;;;;;;5025985;28;20211;-73
2021/08/28 04:38:50;;;;;;;14.13;6.83;;;;;;;;;;5027074;28;20306;-74
2021/08/28 04:41:16;;;;;;;14.20;6.80;;;;;;;;;;5029641;28;20216;-73
2021/08/28 04:43:42;;;;;;;8.87;6.67;;;;;;;;;;5031071;28;20629;-73
2021/08/28 04:46:09;;;;;;;11.17;7.80;;;;;;;;;;5027865;28;20230;-73
2021/08/28 04:48:35;;;;;;;13.90;7.10;;;;;;;;;;5026863;28;20257;-73
2021/08/28 04:51:02;;;;;;;10.93;6.80;;;;;;;;;;5027729;28;20215;-73
2021/08/28 04:53:30;;;;;;;12.40;7.00;;;;;;;;;;5028597;28;20305;-74
2021/08/28 04:55:56;;;;;;;12.67;7.13;;;;;;;;;;5030062;28;20203;-73
2021/08/28 04:58:23;;;;;;;11.40;6.67;;;;;;;;;;5027119;28;20249;-74
2021/08/28 05:00:49;;;;;;;14.13;7.03;;;;;;;;;;5026622;28;20269;-74
2021/08/28 05:03:16;;;;;;;10.33;6.50;;;;;;;;;;5028718;28;20211;-74
2021/08/28 05:05:42;;;;;;;13.27;7.10;;;;;;;;;;5030019;28;20207;-74
2021/08/28 05:08:08;;;;;;;13.37;7.40;;;;;;;;;;5026700;28;20231;-74
2021/08/28 05:10:37;;;;;;;12.77;6.93;;;;;;;;;;5025643;28;20217;-74
2021/08/28 05:13:03;;;;;;;13.47;6.60;;;;;;;;;;5016603;28;20298;-74
2021/08/28 05:15:30;;;;;;;9.90;6.67;;;;;;;;;;5007260;28;20537;-74
2021/08/28 05:17:56;;;;;;;13.10;7.00;;;;;;;;;;5008636;28;20270;-74
2021/08/28 05:20:22;;;;;;;8.77;5.53;;;;;;;;;;5009264;28;20211;-73
2021/08/28 05:22:49;;;;;;;10.47;6.73;;;;;;;;;;5008319;28;20753;-73
2021/08/28 05:25:15;;;;;;;8.33;6.13;;;;;;;;;;5009972;28;21217;-73
2021/08/28 05:27:43;;;;;;;9.47;5.70;;;;;;;;;;5009677;28;20284;-74
2021/08/28 05:30:10;;;;;;;9.87;6.07;;;;;;;;;;5006511;28;20278;-73
2021/08/28 05:32:36;;;;;;;10.00;6.33;;;;;;;;;;5007729;28;20294;-74
2021/08/28 05:35:03;;;;;;;11.93;7.03;;;;;;;;;;5007608;28;20201;-74
2021/08/28 05:37:29;;;;;;;10.67;6.17;;;;;;;;;;5005443;28;20219;-73
2021/08/28 05:39:55;;;;;;;13.00;6.27;;;;;;;;;;5004316;28;20960;-74
2021/08/28 05:42:22;;;;;;;10.87;6.37;;;;;;;;;;5007389;28;20245;-74
2021/08/28 05:44:49;;;;;;;10.67;5.93;;;;;;;;;;5010307;28;20220;-73
2021/08/28 05:47:16;;;;;;;13.67;6.37;;;;;;;;;;5006135;28;20210;-73
2021/08/28 05:49:42;;;;;;;10.50;6.17;;;;;;;;;;5009192;28;20266;-73
2021/08/28 05:52:09;;;;;;;10.57;6.57;;;;;;;;;;5009030;28;20726;-74
2021/08/28 05:54:35;;;;;;;11.73;6.67;;;;;;;;;;5008378;28;20631;-73
2021/08/28 05:57:02;;;;;;;14.70;6.73;;;;;;;;;;5008408;28;20214;-73
2021/08/28 05:59:28;;;;;;;14.37;6.23;;;;;;;;;;5007037;28;20640;-73
2021/08/28 06:01:56;;;;;;;19.77;7.70;;;;;;;;;;5009767;28;20217;-73
2021/08/28 06:04:22;;;;;;;11.83;6.20;;;;;;;;;;5008620;28;20229;-74
2021/08/28 06:06:48;;;;;;;15.60;6.63;;;;;;;;;;5007877;28;20614;-73
2021/08/28 06:09:15;;;;;;;12.57;6.13;;;;;;;;;;5006840;28;20279;-73
2021/08/28 06:11:41;;;;;;;14.20;6.53;;;;;;;;;;5007967;28;20233;-73
2021/08/28 06:14:08;;;;;;;10.90;6.03;;;;;;;;;;5007654;28;20961;-74
2021/08/28 06:16:34;;;;;;;10.50;6.53;;;;;;;;;;5007175;28;20262;-73
2021/08/28 06:19:02;;;;;;;9.73;6.33;;;;;;;;;;5008779;28;20259;-73
2021/08/28 06:21:28;;;;;;;13.37;6.20;;;;;;;;;;5005555;28;20213;-73
2021/08/28 06:23:55;;;;;;;11.07;6.70;;;;;;;;;;5006797;28;20724;-74
2021/08/28 06:26:21;;;;;;;12.00;6.20;;;;;;;;;;5005256;28;20277;-73
2021/08/28 06:28:48;;;;;;;12.40;6.77;;;;;;;;;;5006761;28;20520;-73
2021/08/28 06:31:14;;;;;;;13.07;6.37;;;;;;;;;;5008990;28;20216;-73
2021/08/28 06:33:40;;;;;;;10.33;5.90;;;;;;;;;;5007156;28;20640;-73
2021/08/28 06:36:08;;;;;;;11.33;5.83;;;;;;;;;;5004498;28;20228;-74
2021/08/28 06:38:35;;;;;;;13.43;6.40;;;;;;;;;;5005566;28;20230;-73
2021/08/28 06:41:02;;;;;;;13.17;6.27;;;;;;;;;;5006201;28;20604;-73
2021/08/28 06:43:28;;;;;;;8.77;5.87;;;;;;;;;;5006799;28;20663;-73
2021/08/28 06:45:55;;;;;;;9.93;5.80;;;;;;;;;;5006640;28;20774;-73
2021/08/28 06:48:21;;;;;;;11.67;6.20;;;;;;;;;;5008053;28;20222;-73
2021/08/28 06:50:48;;;;;;;10.77;5.30;;;;;;;;;;5006903;28;20218;-73
2021/08/28 06:53:16;;;;;;;12.43;5.93;;;;;;;;;;5007947;28;20757;-74
2021/08/28 06:55:43;;;;;;;11.13;5.87;;;;;;;;;;5007480;28;20271;-74
2021/08/28 06:58:10;;;;;;;8.27;5.10;;;;;;;;;;5007613;28;20271;-74
2021/08/28 07:00:36;;;;;;;5.60;4.80;;;;;;;;;;5005906;28;20268;-74
2021/08/28 07:03:03;;;;;;;7.77;5.10;;;;;;;;;;5006651;28;20262;-74
2021/08/28 07:05:29;;;;;;;9.63;4.67;;;;;;;;;;5005482;28;20272;-74
2021/08/28 07:07:56;;;;;;;6.83;4.83;;;;;;;;;;5005257;28;20222;-74
2021/08/28 07:10:24;;;;;;;8.13;4.53;;;;;;;;;;5007865;28;20220;-74
2021/08/28 07:12:50;;;;;;;8.87;4.60;;;;;;;;;;5007810;28;20285;-74
2021/08/28 07:15:17;;;;;;;6.10;4.53;;;;;;;;;;5008493;28;20238;-74
2021/08/28 07:17:43;;;;;;;9.03;4.83;;;;;;;;;;5006609;28;20264;-73
2021/08/28 07:20:10;;;;;;;7.43;4.80;;;;;;;;;;5007809;28;20225;-73
2021/08/28 07:22:37;;;;;;;10.07;4.60;;;;;;;;;;5008180;28;20240;-73
2021/08/28 07:25:04;;;;;;;9.67;5.30;;;;;;;;;;5007051;28;20242;-74
2021/08/28 07:27:32;;;;;;;11.03;5.47;;;;;;;;;;5005091;28;20308;-73
2021/08/28 07:29:59;;;;;;;12.07;5.90;;;;;;;;;;5005746;28;20239;-73
2021/08/28 07:32:25;;;;;;;11.27;5.10;;;;;;;;;;5004137;28;20309;-75
2021/08/28 07:34:55;;;;;;;15.43;5.60;;;;;;;;;;5010917;28;21348;-74
2021/08/28 07:37:21;;;;;;;8.63;5.43;;;;;;;;;;5008645;28;20214;-74
2021/08/28 07:39:48;;;;;;;10.63;5.73;;;;;;;;;;5009325;28;20672;-74
2021/08/28 07:42:14;;;;;;;11.23;5.47;;;;;;;;;;5008662;28;20273;-74
2021/08/28 07:44:42;;;;;;;8.33;5.07;;;;;;;;;;5009122;28;20245;-73
2021/08/28 07:47:09;;;;;;;7.30;5.17;;;;;;;;;;5008727;28;20221;-73
2021/08/28 07:49:35;;;;;;;9.17;5.00;;;;;;;;;;5007894;28;20218;-73
2021/08/28 07:52:01;;;;;;;7.70;4.63;;;;;;;;;;5007504;28;21270;-74
2021/08/28 07:54:28;;;;;;;11.60;4.90;;;;;;;;;;5006826;28;20237;-74
2021/08/28 07:56:54;;;;;;;8.50;4.80;;;;;;;;;;5006663;28;20308;-73
2021/08/28 07:59:21;;;;;;;12.37;5.40;;;;;;;;;;5010414;28;20247;-73
2021/08/28 08:01:48;;;;;;;8.10;4.77;;;;;;;;;;5011288;28;20266;-73
2021/08/28 08:04:15;;;;;;;8.83;4.83;;;;;;;;;;5010530;28;20318;-73
2021/08/28 08:06:41;;;;;;;7.50;4.53;;;;;;;;;;5008772;28;20311;-74
2021/08/28 08:09:07;;;;;;;9.63;5.10;;;;;;;;;;5008821;28;20297;-74
2021/08/28 08:11:34;;;;;;;8.47;4.77;;;;;;;;;;5010456;28;20856;-74
2021/08/28 08:14:00;;;;;;;8.27;4.60;;;;;;;;;;5006252;28;20234;-73
2021/08/28 08:16:27;;;;;;;9.43;5.00;;;;;;;;;;5007313;28;20215;-74
2021/08/28 08:18:54;;;;;;;9.73;4.97;;;;;;;;;;5007135;28;20222;-74
2021/08/28 08:21:21;;;;;;;23.80;5.50;;;;;;;;;;5004759;28;20219;-73
2021/08/28 08:23:48;;;;;;;10.73;4.97;;;;;;;;;;5007981;28;20608;-74
2021/08/28 08:26:14;;;;;;;14.23;5.20;;;;;;;;;;5007592;28;20220;-74
2021/08/28 08:28:40;;;;;;;9.87;4.97;;;;;;;;;;5009027;28;20215;-73
2021/08/28 08:31:07;;;;;;;11.87;4.50;;;;;;;;;;5007451;28;20268;-73
2021/08/28 08:33:33;;;;;;;10.33;5.30;;;;;;;;;;5007531;28;20821;-73
2021/08/28 08:36:01;;;;;;;12.30;4.23;;;;;;;;;;5008039;28;20214;-73
2021/08/28 08:38:27;;;;;;;10.53;5.00;;;;;;;;;;5008232;28;20238;-73
2021/08/28 08:40:55;;;;;;;7.97;4.70;;;;;;;;;;5008226;28;20232;-73
2021/08/28 08:43:22;;;;;;;9.07;4.37;;;;;;;;;;5006319;28;20222;-73
2021/08/28 08:45:49;;;;;;;9.60;5.60;;;;;;;;;;5006027;28;20216;-73
2021/08/28 08:48:16;;;;;;;6.67;4.80;;;;;;;;;;5009537;28;20269;-73
2021/08/28 08:50:44;;;;;;;8.07;5.03;;;;;;;;;;5008381;28;20399;-73
2021/08/28 08:53:16;;;;;;;8.13;5.20;;;;;;;;;;5007379;28;20598;-73
2021/08/28 08:55:43;;;;;;;8.20;5.20;;;;;;;;;;5006469;28;20253;-73
2021/08/28 08:58:09;;;;;;;9.30;4.83;;;;;;;;;;5008612;28;21098;-72
2021/08/28 09:00:36;;;;;;;10.53;5.23;;;;;;;;;;5009734;28;20251;-72
2021/08/28 09:03:03;;;;;;;12.87;4.73;;;;;;;;;;5007183;28;20212;-73
2021/08/28 09:05:29;;;;;;;6.70;4.63;;;;;;;;;;5006703;28;21103;-73
2021/08/28 09:07:55;;;;;;;9.20;4.80;;;;;;;;;;5006438;28;20611;-73
2021/08/28 09:10:23;;;;;;;6.37;4.70;;;;;;;;;;5006681;28;20220;-73
2021/08/28 09:12:49;;;;;;;8.43;4.40;;;;;;;;;;5006175;28;20239;-72
2021/08/28 09:15:16;;;;;;;9.47;5.07;;;;;;;;;;5008124;28;20239;-73
2021/08/28 09:17:44;;;;;;;8.27;4.60;;;;;;;;;;5006732;28;20267;-73
2021/08/28 09:20:22;;;;;;;7.90;5.27;;;;;;;;;;5006306;28;20675;-73
2021/08/28 09:22:48;;;;;;;6.27;4.43;;;;;;;;;;5007134;28;20211;-73
2021/08/28 09:25:24;;;;;;;6.27;4.20;;;;;;;;;;5004788;28;20212;-73
2021/08/28 09:27:51;;;;;;;8.03;4.53;;;;;;;;;;5009488;28;20208;-73
2021/08/28 09:30:23;;;;;;;7.07;4.33;;;;;;;;;;5005810;28;20212;-73
2021/08/28 09:32:53;;;;;;;9.53;4.00;;;;;;;;;;5006287;28;20570;-73
2021/08/28 09:35:21;;;;;;;3.90;3.40;;;;;;;;;;5005798;28;20272;-73
2021/08/28 09:38:00;;;;;;;8.33;3.50;;;;;;;;;;5007289;28;20223;-73
2021/08/28 09:40:30;;;;;;;4.87;3.50;;;;;;;;;;5007049;28;20274;-73
2021/08/28 09:43:00;;;;;;;5.33;3.53;;;;;;;;;;5006131;28;20270;-74
2021/08/28 09:45:27;;;;;;;4.63;3.63;;;;;;;;;;5005643;28;20220;-73
2021/08/28 09:47:55;;;;;;;5.47;3.70;;;;;;;;;;5009883;28;20761;-73
2021/08/28 09:50:30;;;;;;;3.80;3.40;;;;;;;;;;5003980;28;20599;-74
2021/08/28 09:53:02;;;;;;;4.43;2.97;;;;;;;;;;5006905;28;20212;-74
2021/08/28 09:55:32;;;;;;;5.57;3.90;;;;;;;;;;5005568;28;20556;-74
2021/08/28 09:57:58;;;;;;;6.37;3.33;;;;;;;;;;5006843;28;20334;-75
2021/08/28 10:00:25;;;;;;;8.13;3.43;;;;;;;;;;5005717;28;20322;-74
2021/08/28 10:02:59;;;;;;;6.20;3.93;;;;;;;;;;5007132;28;20251;-74
2021/08/28 10:05:27;;;;;;;6.20;3.40;;;;;;;;;;5006108;28;20617;-74
2021/08/28 10:07:57;;;;;;;6.53;3.73;;;;;;;;;;5006086;28;20220;-74
2021/08/28 10:10:24;;;;;;;6.27;3.70;;;;;;;;;;5005999;28;20324;-74
2021/08/28 10:12:53;;;;;;;5.23;3.30;;;;;;;;;;5005174;28;20225;-73
2021/08/28 10:15:20;;;;;;;6.93;2.63;;;;;;;;;;5006049;28;20304;-73
2021/08/28 10:17:48;;;;;;;7.50;3.83;;;;;;;;;;5006355;28;20734;-75
2021/08/28 10:20:16;;;;;;;5.00;3.60;;;;;;;;;;5005564;28;20306;-74
2021/08/28 10:22:43;;;;;;;5.20;3.10;;;;;;;;;;5005266;28;20482;-74
2021/08/28 10:25:12;;;;;;;5.97;3.10;;;;;;;;;;5006278;28;20839;-74
2021/08/28 10:27:40;;;;;;;7.00;3.53;;;;;;;;;;5004322;28;20219;-74
2021/08/28 10:30:11;;;;;;;6.43;3.63;;;;;;;;;;5005202;28;20250;-74
2021/08/28 10:32:38;;;;;;;5.63;3.43;;;;;;;;;;5003896;28;20261;-74
2021/08/28 10:35:05;;;;;;;7.07;3.33;;;;;;;;;;5003460;28;20301;-74
2021/08/28 10:37:32;;;;;;;5.83;3.30;;;;;;;;;;5006971;28;20219;-74
2021/08/28 10:39:59;;;;;;;4.83;3.40;;;;;;;;;;5006496;28;20239;-74
2021/08/28 10:42:30;;;;;;;9.37;3.10;;;;;;;;;;5006508;28;20255;-74
2021/08/28 10:45:00;;;;;;;6.20;3.17;;;;;;;;;;5004920;28;20291;-74
2021/08/28 10:47:31;;;;;;;7.67;3.33;;;;;;;;;;5004010;28;20851;-74
2021/08/28 10:50:02;;;;;;;5.43;3.33;;;;;;;;;;5007349;28;20208;-74
2021/08/28 10:52:29;;;;;;;6.90;3.50;;;;;;;;;;5006940;28;20211;-74
2021/08/28 10:54:57;;;;;;;5.53;3.30;;;;;;;;;;5005428;28;20690;-74
2021/08/28 10:57:28;;;;;;;5.63;3.20;;;;;;;;;;5004631;28;20224;-74
2021/08/28 11:00:03;;;;;;;5.97;3.70;;;;;;;;;;5004962;28;20255;-74
2021/08/28 11:02:55;;;;;;;5.60;2.90;;;;;;;;;;5005002;28;20560;-74
2021/08/28 11:05:23;;;;;;;6.97;2.80;;;;;;;;;;5006343;28;20638;-74
2021/08/28 11:07:50;;;;;;;5.47;2.90;;;;;;;;;;5006928;28;20271;-74
2021/08/28 11:10:19;;;;;;;6.63;3.30;;;;;;;;;;5004837;28;20219;-74
2021/08/28 11:12:48;;;;;;;6.33;3.37;;;;;;;;;;5005443;28;20231;-75
2021/08/28 11:15:40;;;;;;;7.17;3.50;;;;;;;;;;5004073;28;20702;-73
2021/08/28 11:18:10;;;;;;;7.33;3.43;;;;;;;;;;5006728;28;20830;-74
2021/08/28 11:20:39;;;;;;;7.60;2.93;;;;;;;;;;4995608;28;20699;-74
2021/08/28 11:23:07;;;;;;;4.40;2.60;;;;;;;;;;5005594;28;20327;-74
2021/08/28 11:25:35;;;;;;;6.43;2.67;;;;;;;;;;5007861;28;20277;-74
2021/08/28 11:28:03;;;;;;;6.73;3.73;;;;;;;;;;5006032;28;20605;-74
2021/08/28 11:30:53;;;;;;;4.37;3.00;;;;;;;;;;5005542;28;20213;-74
2021/08/28 11:33:25;;;;;;;5.23;3.53;;;;;;;;;;5003633;28;20211;-74
2021/08/28 11:35:53;;;;;;;6.73;3.03;;;;;;;;;;5006063;28;20288;-74
2021/08/28 11:38:23;;;;;;;5.77;3.53;;;;;;;;;;5001801;28;20233;-74
2021/08/28 11:40:57;;;;;;;5.70;3.23;;;;;;;;;;5005726;28;20309;-74
2021/08/28 11:43:31;;;;;;;6.63;2.93;;;;;;;;;;5007265;28;20963;-74
2021/08/28 11:46:02;;;;;;;4.90;2.80;;;;;;;;;;5004690;28;20211;-74
2021/08/28 11:48:32;;;;;;;5.80;2.73;;;;;;;;;;5007628;28;20332;-74
2021/08/28 11:50:59;;;;;;;5.17;3.00;;;;;;;;;;5007575;28;20303;-74
2021/08/28 11:53:27;;;;;;;5.13;3.03;;;;;;;;;;5007067;28;20648;-75
2021/08/28 11:56:02;;;;;;;5.00;2.77;;;;;;;;;;5006183;28;20215;-74
2021/08/28 11:58:28;;;;;;;5.53;2.73;;;;;;;;;;5006983;28;20207;-74
2021/08/28 12:00:55;;;;;;;4.77;2.80;;;;;;;;;;5006624;28;20776;-74
2021/08/28 12:03:21;;;;;;;5.90;2.70;;;;;;;;;;5004367;28;20212;-74
2021/08/28 12:05:52;;;;;;;9.67;3.17;;;;;;;;;;5007519;28;20220;-74
2021/08/28 12:08:20;;;;;;;5.63;2.87;;;;;;;;;;5008198;28;20678;-74
2021/08/28 12:10:46;;;;;;;6.03;2.97;;;;;;;;;;5008110;28;20223;-74
2021/08/28 12:13:13;;;;;;;4.97;3.13;;;;;;;;;;5005880;28;20220;-74
2021/08/28 12:15:40;;;;;;;8.33;3.10;;;;;;;;;;5006037;28;20236;-74
2021/08/28 12:18:07;;;;;;;6.77;2.63;;;;;;;;;;5006066;28;20290;-73
2021/08/28 12:20:34;;;;;;;6.17;3.03;;;;;;;;;;5005339;28;20258;-74
2021/08/28 12:23:03;;;;;;;7.20;2.50;;;;;;;;;;5009307;28;20265;-74
2021/08/28 12:25:30;;;;;;;4.10;2.50;;;;;;;;;;5009856;28;20653;-74
2021/08/28 12:27:56;;;;;;;5.13;2.13;;;;;;;;;;5012632;28;20688;-74
2021/08/28 12:30:24;;;;;;;6.20;2.50;;;;;;;;;;5009208;28;20211;-74
2021/08/28 12:32:51;;;;;;;5.20;2.80;;;;;;;;;;5009951;28;20246;-75
2021/08/28 12:35:17;;;;;;;9.33;2.77;;;;;;;;;;5010096;28;20242;-74
2021/08/28 12:37:44;;;;;;;5.70;3.23;;;;;;;;;;5009008;28;20223;-74
2021/08/28 12:40:16;;;;;;;7.37;2.90;;;;;;;;;;5007827;28;20239;-74
2021/08/28 12:42:44;;;;;;;5.40;2.40;;;;;;;;;;5004388;28;20207;-74
2021/08/28 12:45:13;;;;;;;5.77;2.60;;;;;;;;;;5009912;28;20284;-74
2021/08/28 12:47:43;;;;;;;6.70;2.50;;;;;;;;;;5009140;28;20607;-75
2021/08/28 12:50:10;;;;;;;7.83;2.70;;;;;;;;;;5008059;28;20307;-74
2021/08/28 12:52:38;;;;;;;6.33;3.20;;;;;;;;;;5009356;28;20222;-74
2021/08/28 12:55:06;;;;;;;5.73;2.63;;;;;;;;;;5010246;28;20295;-74
2021/08/28 12:57:34;;;;;;;7.67;3.00;;;;;;;;;;5011358;28;20291;-74
2021/08/28 13:00:03;;;;;;;6.57;3.00;;;;;;;;;;5008905;28;20247;-74
2021/08/28 13:02:31;;;;;;;4.23;2.53;;;;;;;;;;5007907;28;20293;-73
2021/08/28 13:04:59;;;;;;;6.23;2.93;;;;;;;;;;5010343;28;20216;-74
2021/08/28 13:07:36;;;;;;;4.27;2.60;;;;;;;;;;5009050;28;20285;-74
2021/08/28 13:10:09;;;;;;;5.73;3.20;;;;;;;;;;5008355;28;20224;-74
2021/08/28 13:12:51;;;;;;;3.87;2.90;;;;;;;;;;5007163;28;20269;-74
2021/08/28 13:15:48;;;;;;;6.17;2.50;;;;;;;;;;5009319;28;20703;-74
2021/08/28 13:18:17;;;;;;;9.20;2.50;;;;;;;;;;4948056;28;20218;-74
2021/08/28 13:20:46;;;;;;;6.07;2.90;;;;;;;;;;4993941;28;20715;-74
2021/08/28 13:23:14;;;;;;;7.67;3.00;;;;;;;;;;5008941;28;20317;-74
2021/08/28 13:25:43;;;;;;;7.97;2.67;;;;;;;;;;5006174;28;20208;-74
2021/08/28 13:28:19;;;;;;;4.43;2.47;;;;;;;;;;5010280;28;20238;-74
2021/08/28 13:30:46;;;;;;;3.87;3.07;;;;;;;;;;5008046;28;20214;-74
2021/08/28 13:33:22;;;;;;;5.70;2.90;;;;;;;;;;5010943;28;20213;-74
2021/08/28 13:35:48;;;;;;;6.63;2.90;;;;;;;;;;5009176;28;20224;-74
2021/08/28 13:38:15;;;;;;;11.77;4.07;;;;;;;;;;5008693;28;20633;-74
2021/08/28 13:40:43;;;;;;;9.37;3.30;;;;;;;;;;5009499;28;20216;-73
2021/08/28 13:43:10;;;;;;;4.77;3.10;;;;;;;;;;5009040;28;20254;-74
2021/08/28 13:45:37;;;;;;;5.33;3.47;;;;;;;;;;5008061;28;20266;-74
2021/08/28 13:48:04;;;;;;;6.27;3.23;;;;;;;;;;5008358;28;20308;-73
2021/08/28 13:50:31;;;;;;;5.27;2.90;;;;;;;;;;5007314;28;20219;-74
2021/08/28 13:52:57;;;;;;;5.83;2.90;;;;;;;;;;5007438;28;20269;-73
2021/08/28 13:55:24;;;;;;;7.90;2.87;;;;;;;;;;5008352;28;20549;-73
2021/08/28 13:57:50;;;;;;;7.27;2.80;;;;;;;;;;5009853;28;20217;-74
2021/08/28 14:00:18;;;;;;;3.57;3.10;;;;;;;;;;5007223;28;20718;-74
2021/08/28 14:02:46;;;;;;;4.77;3.10;;;;;;;;;;5006644;28;20221;-74
2021/08/28 14:05:15;;;;;;;6.77;3.00;;;;;;;;;;5007830;28;20216;-73
2021/08/28 14:07:41;;;;;;;4.83;2.63;;;;;;;;;;5009301;28;20262;-74
2021/08/28 14:10:10;;;;;;;2.87;2.00;;;;;;;;;;5007719;28;20227;-74
2021/08/28 14:12:36;;;;;;;4.37;2.57;;;;;;;;;;5007122;28;20219;-74
2021/08/28 14:15:03;;;;;;;5.73;2.73;;;;;;;;;;5004793;28;20239;-74
2021/08/28 14:17:31;;;;;;;7.37;2.83;;;;;;;;;;5007383;28;20262;-74
2021/08/28 14:20:00;;;;;;;5.83;2.27;;;;;;;;;;5010323;28;20215;-74
2021/08/28 14:22:27;;;;;;;2.73;2.33;;;;;;;;;;5007744;28;20281;-74
2021/08/28 14:24:53;;;;;;;6.23;2.83;;;;;;;;;;5007177;28;20690;-73
2021/08/28 14:27:20;;;;;;;3.23;2.10;;;;;;;;;;5007312;28;20283;-73
2021/08/28 14:29:46;;;;;;;4.00;2.60;;;;;;;;;;5007835;28;20261;-74
2021/08/28 14:32:13;;;;;;;5.13;2.40;;;;;;;;;;5009474;28;20218;-73
2021/08/28 14:34:39;;;;;;;8.50;2.70;;;;;;;;;;5006803;28;20788;-74
2021/08/28 14:37:07;;;;;;;4.70;2.50;;;;;;;;;;5007777;28;20218;-74
2021/08/28 14:39:33;;;;;;;2.87;2.37;;;;;;;;;;5008296;28;20231;-74
2021/08/28 14:42:00;;;;;;;7.37;2.47;;;;;;;;;;5007170;28;20591;-73